Time;durP1;ratioP1;P1;durP2;ratioP2;P2;SDS_P1;SDS_P2;PMS_P1;PMS_P2;Temp;Humidity;BMP_temperature;BMP_pressure;BME280_temperature;BME280_humidity;BME280_pressure;Samples;Min_cycle;Max_cycle;Signal;HPM_P1;HPM_P2
2021/11/25 00:02:17;;;;;;;12.70;7.40;;;15.40;67.10;;;;;;5092306;28;20059;-72
2021/11/25 00:04:43;;;;;;;9.77;7.45;;;15.40;67.30;;;;;;5092449;28;20158;-70
2021/11/25 00:07:08;;;;;;;11.07;7.45;;;15.40;67.40;;;;;;5092661;28;20035;-70
2021/11/25 00:09:34;;;;;;;11.68;7.90;;;15.40;67.50;;;;;;5092618;28;20016;-70
2021/11/25 00:12:00;;;;;;;11.63;7.43;;;15.40;67.50;;;;;;5092431;28;20107;-70
2021/11/25 00:14:26;;;;;;;9.95;7.03;;;15.40;67.50;;;;;;5092389;28;20077;-72
2021/11/25 00:16:52;;;;;;;10.52;7.00;;;15.40;67.70;;;;;;5092452;28;20028;-71
2021/11/25 00:19:17;;;;;;;9.43;6.88;;;15.40;67.80;;;;;;5092377;28;20101;-69
2021/11/25 00:21:44;;;;;;;12.15;6.95;;;15.40;67.70;;;;;;5075424;28;20028;-70
2021/11/25 00:24:10;;;;;;;9.80;6.65;;;15.40;67.90;;;;;;5095889;28;20078;-70
2021/11/25 00:26:36;;;;;;;10.35;6.68;;;15.40;68.00;;;;;;5095900;28;20032;-72
2021/11/25 00:29:04;;;;;;;12.35;7.13;;;15.50;68.00;;;;;;5096036;28;20107;-70
2021/11/25 00:31:30;;;;;;;12.07;7.25;;;15.50;68.00;;;;;;5095884;28;20038;-69
2021/11/25 00:33:56;;;;;;;9.50;6.70;;;15.50;68.00;;;;;;5095867;28;20098;-73
2021/11/25 00:36:21;;;;;;;12.20;6.55;;;15.50;68.10;;;;;;5095953;28;20052;-71
2021/11/25 00:38:47;;;;;;;10.10;6.57;;;15.50;68.20;;;;;;5096334;28;20032;-78
2021/11/25 00:41:14;;;;;;;12.38;7.20;;;15.40;68.10;;;;;;5096221;28;20020;-77
2021/11/25 00:43:40;;;;;;;11.15;7.30;;;15.40;68.40;;;;;;5096012;28;20024;-78
2021/11/25 00:46:06;;;;;;;10.57;7.15;;;15.40;68.70;;;;;;5095870;28;20057;-72
2021/11/25 00:48:32;;;;;;;11.30;7.45;;;15.40;68.60;;;;;;5096080;28;20044;-77
2021/11/25 00:50:58;;;;;;;9.95;6.90;;;15.40;68.50;;;;;;5095533;28;20036;-73
2021/11/25 00:53:24;;;;;;;10.48;7.25;;;15.40;68.70;;;;;;5095954;28;20024;-74
2021/11/25 00:55:50;;;;;;;12.50;7.13;;;15.40;68.80;;;;;;5096044;28;20039;-73
2021/11/25 00:58:17;;;;;;;10.32;6.68;;;15.40;68.80;;;;;;5095236;28;20103;-77
2021/11/25 01:00:43;;;;;;;9.65;6.75;;;15.40;69.10;;;;;;5095328;28;20043;-78
2021/11/25 01:03:09;;;;;;;10.00;6.80;;;15.40;69.20;;;;;;5077070;28;20466;-79
2021/11/25 01:05:35;;;;;;;9.50;6.18;;;15.40;69.00;;;;;;5095087;28;20036;-78
2021/11/25 01:08:01;;;;;;;8.63;6.28;;;15.50;69.20;;;;;;5095431;28;20503;-78
2021/11/25 01:10:27;;;;;;;8.98;6.00;;;15.40;69.20;;;;;;5095219;28;20016;-75
2021/11/25 01:12:54;;;;;;;8.30;5.82;;;15.50;69.20;;;;;;5095283;28;20430;-77
2021/11/25 01:15:29;;;;;;;8.93;5.90;;;15.50;69.20;;;;;;5095074;28;20081;-79
2021/11/25 01:18:00;;;;;;;9.50;6.07;;;15.50;69.20;;;;;;5095186;28;20063;-74
2021/11/25 01:20:26;;;;;;;10.82;6.10;;;15.50;69.10;;;;;;5095242;28;20028;-73
2021/11/25 01:22:51;;;;;;;9.43;5.95;;;15.50;69.10;;;;;;5095123;28;20380;-72
2021/11/25 01:25:17;;;;;;;8.75;6.35;;;15.50;69.10;;;;;;5094932;28;20036;-79
2021/11/25 01:27:43;;;;;;;9.15;6.50;;;15.50;69.30;;;;;;5095638;28;20028;-77
2021/11/25 01:30:11;;;;;;;10.38;6.57;;;15.50;69.30;;;;;;5095142;28;20416;-79
2021/11/25 01:32:38;;;;;;;9.18;6.20;;;15.50;69.30;;;;;;5093885;28;20016;-76
2021/11/25 01:35:04;;;;;;;9.30;6.47;;;15.50;69.10;;;;;;5094633;28;20107;-74
2021/11/25 01:37:30;;;;;;;8.60;5.63;;;15.50;69.50;;;;;;5094966;28;20020;-77
2021/11/25 01:39:56;;;;;;;9.98;6.32;;;15.50;69.40;;;;;;5094765;28;20073;-78
2021/11/25 01:42:23;;;;;;;8.90;6.38;;;15.50;69.40;;;;;;5094723;28;20024;-75
2021/11/25 01:44:49;;;;;;;9.98;6.38;;;15.50;69.50;;;;;;5094858;28;20056;-77
2021/11/25 01:47:15;;;;;;;9.38;6.25;;;15.50;69.80;;;;;;5094940;28;20017;-80
2021/11/25 01:49:41;;;;;;;8.52;6.25;;;15.50;69.80;;;;;;5094775;28;20024;-77
2021/11/25 01:52:07;;;;;;;8.77;6.30;;;15.50;69.90;;;;;;5094567;28;20070;-75
2021/11/25 01:54:32;;;;;;;9.05;6.03;;;15.50;69.90;;;;;;5094711;28;20061;-76
2021/11/25 01:56:58;;;;;;;11.15;6.30;;;15.40;70.00;;;;;;5094679;28;20125;-76
2021/11/25 01:59:24;;;;;;;8.75;5.75;;;15.40;70.00;;;;;;5076554;28;20024;-76
2021/11/25 02:01:50;;;;;;;10.70;6.45;;;15.40;70.10;;;;;;5094373;28;20028;-74
2021/11/25 02:04:17;;;;;;;9.65;6.03;;;15.40;70.40;;;;;;5094386;28;20020;-75
2021/11/25 02:06:42;;;;;;;12.07;6.10;;;15.40;70.50;;;;;;5094216;28;20047;-76
2021/11/25 02:09:10;;;;;;;9.02;6.22;;;15.40;70.90;;;;;;5097566;28;20020;-76
2021/11/25 02:11:36;;;;;;;8.85;6.10;;;15.40;71.00;;;;;;5095590;28;20024;-74
2021/11/25 02:14:04;;;;;;;14.02;6.57;;;15.40;71.30;;;;;;5094516;28;20024;-75
2021/11/25 02:16:30;;;;;;;9.20;6.10;;;15.30;71.90;;;;;;5093935;28;20031;-75
2021/11/25 02:18:58;;;;;;;9.07;6.22;;;15.30;72.00;;;;;;5094240;28;20032;-78
2021/11/25 02:21:28;;;;;;;8.85;6.53;;;15.40;72.70;;;;;;5094228;28;20028;-74
2021/11/25 02:23:54;;;;;;;8.65;6.38;;;15.30;72.50;;;;;;5093850;28;20052;-71
2021/11/25 02:26:21;;;;;;;8.70;6.15;;;15.30;72.60;;;;;;5093548;28;20043;-71
2021/11/25 02:28:47;;;;;;;13.85;7.47;;;15.30;73.30;;;;;;5093519;28;20095;-71
2021/11/25 02:31:13;;;;;;;9.80;6.13;;;15.30;73.20;;;;;;5093505;28;20468;-70
2021/11/25 02:33:41;;;;;;;9.32;6.93;;;15.30;73.60;;;;;;5093782;28;20389;-70
2021/11/25 02:36:07;;;;;;;9.02;6.68;;;15.30;73.50;;;;;;5093807;28;20091;-73
2021/11/25 02:38:33;;;;;;;10.95;6.97;;;15.20;73.60;;;;;;5095454;28;20027;-72
2021/11/25 02:40:59;;;;;;;13.57;6.55;;;15.30;73.90;;;;;;5097209;28;20066;-74
2021/11/25 02:43:29;;;;;;;11.50;6.72;;;15.20;74.30;;;;;;5103347;28;20440;-72
2021/11/25 02:45:59;;;;;;;10.52;6.72;;;15.20;74.30;;;;;;5107688;28;20031;-72
2021/11/25 02:48:43;;;;;;;11.63;6.65;;;15.20;74.60;;;;;;5103225;28;20071;-75
2021/11/25 02:51:12;;;;;;;10.00;6.25;;;15.30;75.40;;;;;;5094116;28;20028;-78
2021/11/25 02:53:39;;;;;;;9.30;6.30;;;15.20;75.00;;;;;;5094214;28;20043;-78
2021/11/25 02:56:04;;;;;;;8.55;6.15;;;15.30;75.30;;;;;;5098583;28;20024;-76
2021/11/25 02:58:30;;;;;;;13.00;6.18;;;15.30;75.50;;;;;;5095278;28;20433;-75
2021/11/25 03:01:00;;;;;;;9.60;6.28;;;15.30;75.70;;;;;;5097099;28;20058;-76
2021/11/25 03:03:26;;;;;;;9.90;5.80;;;15.30;75.70;;;;;;5096681;28;20545;-76
2021/11/25 03:05:52;;;;;;;10.77;5.88;;;15.30;76.00;;;;;;5093942;28;20048;-73
2021/11/25 03:08:20;;;;;;;8.05;6.00;;;15.30;76.40;;;;;;5093529;28;20024;-71
2021/11/25 03:10:59;;;;;;;9.23;6.22;;;15.30;77.30;;;;;;5093246;28;20074;-70
2021/11/25 03:13:26;;;;;;;10.07;7.20;;;15.30;77.90;;;;;;5093607;28;20492;-69
2021/11/25 03:15:53;;;;;;;8.52;6.18;;;15.30;78.30;;;;;;5093227;28;20408;-69
2021/11/25 03:18:19;;;;;;;9.30;6.00;;;15.30;79.00;;;;;;5093018;28;20031;-69
2021/11/25 03:20:47;;;;;;;11.00;7.03;;;15.20;80.20;;;;;;5075050;28;20032;-69
2021/11/25 03:23:15;;;;;;;8.73;6.55;;;15.10;80.60;;;;;;5092924;28;20040;-69
2021/11/25 03:25:43;;;;;;;10.25;6.85;;;15.10;81.40;;;;;;5092999;28;20055;-69
2021/11/25 03:28:09;;;;;;;11.90;6.75;;;15.00;81.70;;;;;;5092901;28;20103;-75
2021/11/25 03:30:35;;;;;;;9.75;6.80;;;15.00;82.60;;;;;;5092769;28;20104;-72
2021/11/25 03:33:04;;;;;;;9.50;6.43;;;14.90;82.80;;;;;;5092713;28;20020;-75
2021/11/25 03:35:31;;;;;;;10.57;6.68;;;14.80;83.50;;;;;;5092738;28;20020;-72
2021/11/25 03:37:57;;;;;;;9.45;6.95;;;14.80;84.20;;;;;;5092688;28;20023;-68
2021/11/25 03:40:23;;;;;;;9.00;6.68;;;14.70;84.90;;;;;;5074463;28;20024;-73
2021/11/25 03:42:49;;;;;;;11.10;6.93;;;14.60;85.70;;;;;;5092889;28;20036;-71
2021/11/25 03:45:14;;;;;;;11.68;6.63;;;14.60;85.80;;;;;;5092861;28;20040;-70
2021/11/25 03:47:44;;;;;;;9.30;6.45;;;14.50;86.30;;;;;;5092853;28;20427;-73
2021/11/25 03:50:13;;;;;;;8.57;6.22;;;14.50;88.00;;;;;;5092515;28;20089;-74
2021/11/25 03:52:39;;;;;;;10.52;6.40;;;14.40;87.80;;;;;;5092759;28;20016;-74
2021/11/25 03:55:07;;;;;;;9.40;6.50;;;14.40;89.50;;;;;;5092720;28;20027;-77
2021/11/25 03:57:32;;;;;;;9.82;5.95;;;14.40;89.70;;;;;;5095425;28;20028;-78
2021/11/25 03:59:58;;;;;;;9.23;6.03;;;14.40;90.10;;;;;;5096703;28;20024;-75
2021/11/25 04:02:24;;;;;;;10.15;6.00;;;14.30;90.10;;;;;;5096478;28;20410;-78
2021/11/25 04:04:50;;;;;;;8.15;6.13;;;14.30;90.20;;;;;;5096398;28;20024;-76
2021/11/25 04:07:16;;;;;;;9.38;6.07;;;14.30;90.40;;;;;;5096489;28;20377;-79
2021/11/25 04:09:44;;;;;;;8.70;5.88;;;14.20;90.50;;;;;;5096921;28;20111;-76
2021/11/25 04:12:10;;;;;;;8.60;6.05;;;14.20;90.90;;;;;;5096615;28;20035;-78
2021/11/25 04:14:35;;;;;;;7.88;5.60;;;14.30;90.80;;;;;;5096686;28;20028;-77
2021/11/25 04:17:01;;;;;;;9.18;5.72;;;14.30;90.90;;;;;;5096862;28;20059;-79
2021/11/25 04:19:27;;;;;;;8.88;6.00;;;14.30;91.00;;;;;;5096384;28;20074;-79
2021/11/25 04:21:53;;;;;;;7.65;5.50;;;14.30;91.00;;;;;;5096184;28;20491;-78
2021/11/25 04:24:20;;;;;;;9.02;6.15;;;14.20;91.10;;;;;;5095999;28;20036;-77
2021/11/25 04:26:46;;;;;;;9.43;5.78;;;14.20;91.20;;;;;;5096185;28;20115;-76
2021/11/25 04:29:12;;;;;;;9.32;5.68;;;14.20;91.20;;;;;;5096137;28;20437;-78
2021/11/25 04:37:10;;;;;;;8.77;5.65;;;14.20;91.10;;;;;;5096502;28;20036;-78
2021/11/25 04:39:35;;;;;;;9.35;6.15;;;14.20;91.10;;;;;;5095942;28;20020;-75
2021/11/25 04:42:01;;;;;;;9.10;6.18;;;14.20;91.00;;;;;;5095816;28;20465;-78
2021/11/25 04:44:27;;;;;;;8.40;6.00;;;14.20;90.90;;;;;;5095796;28;20047;-77
2021/11/25 04:46:54;;;;;;;10.13;6.53;;;14.20;91.00;;;;;;5095993;28;20036;-79
2021/11/25 04:49:19;;;;;;;8.95;6.20;;;14.20;91.00;;;;;;5095871;28;20016;-78
2021/11/25 04:51:45;;;;;;;9.85;6.50;;;14.20;90.80;;;;;;5095691;28;20028;-77
2021/11/25 04:54:11;;;;;;;8.15;5.95;;;14.20;90.90;;;;;;5095770;28;20107;-77
2021/11/25 04:56:37;;;;;;;9.80;6.50;;;14.20;91.00;;;;;;5095759;28;20110;-77
2021/11/25 04:59:02;;;;;;;9.07;6.22;;;14.20;91.00;;;;;;5095800;28;20384;-77
2021/11/25 05:01:28;;;;;;;9.68;6.93;;;14.20;91.10;;;;;;5077397;28;20072;-78
2021/11/25 05:03:54;;;;;;;7.75;5.55;;;14.20;91.10;;;;;;5077303;28;20032;-77
2021/11/25 05:06:19;;;;;;;10.35;6.57;;;14.20;91.10;;;;;;5095233;28;20043;-78
2021/11/25 05:08:45;;;;;;;9.73;6.10;;;14.20;91.20;;;;;;5095017;28;20024;-78
2021/11/25 05:11:13;;;;;;;8.38;5.85;;;14.30;91.40;;;;;;5095360;28;20028;-79
2021/11/25 05:13:39;;;;;;;10.52;6.03;;;14.30;91.40;;;;;;5095283;28;20068;-76
2021/11/25 05:16:05;;;;;;;8.32;6.07;;;14.30;91.30;;;;;;5095361;28;20020;-77
2021/11/25 05:18:31;;;;;;;8.13;5.65;;;14.30;91.30;;;;;;5095290;28;20465;-78
2021/11/25 05:20:58;;;;;;;9.18;6.43;;;14.30;91.30;;;;;;5077264;28;20173;-80
2021/11/25 05:23:24;;;;;;;8.65;6.10;;;14.30;91.40;;;;;;5060104;28;20105;-79
2021/11/25 05:25:52;;;;;;;7.03;5.65;;;14.30;91.60;;;;;;5094966;28;20044;-78
2021/11/25 05:28:18;;;;;;;9.35;6.35;;;14.30;91.40;;;;;;5095200;28;20056;-78
2021/11/25 05:30:44;;;;;;;8.65;5.90;;;14.30;91.50;;;;;;5094888;28;20450;-77
2021/11/25 05:33:10;;;;;;;8.60;5.82;;;14.30;91.60;;;;;;5095117;28;20028;-76
2021/11/25 05:35:37;;;;;;;8.10;5.28;;;14.30;91.60;;;;;;5095053;28;20024;-75
2021/11/25 05:38:03;;;;;;;9.02;5.80;;;14.30;91.70;;;;;;5094955;28;20055;-78
2021/11/25 05:40:29;;;;;;;8.02;5.50;;;14.30;91.70;;;;;;5094708;28;20035;-79
2021/11/25 05:42:55;;;;;;;10.30;5.78;;;14.30;91.80;;;;;;5095123;28;20024;-78
2021/11/25 05:45:21;;;;;;;8.75;5.97;;;14.30;91.70;;;;;;5094672;28;20400;-78
2021/11/25 05:47:47;;;;;;;6.63;4.90;;;14.30;91.80;;;;;;5094677;28;20020;-77
2021/11/25 05:50:18;;;;;;;8.30;6.05;;;14.30;91.90;;;;;;5076573;28;20024;-77
2021/11/25 05:52:45;;;;;;;8.02;5.40;;;14.40;91.90;;;;;;5094413;28;20417;-77
2021/11/25 05:55:11;;;;;;;8.98;4.80;;;14.40;91.80;;;;;;5094571;28;20028;-79
2021/11/25 05:57:37;;;;;;;8.57;5.50;;;14.40;91.90;;;;;;5094378;28;20059;-76
2021/11/25 06:00:05;;;;;;;8.88;5.82;;;14.50;92.00;;;;;;5094406;28;20042;-77
2021/11/25 06:02:31;;;;;;;11.63;5.22;;;14.50;91.90;;;;;;5094029;28;20046;-76
2021/11/25 06:04:56;;;;;;;8.18;5.10;;;14.50;91.90;;;;;;5094527;28;20477;-77
2021/11/25 06:07:22;;;;;;;8.40;5.88;;;14.60;92.00;;;;;;5094495;28;20373;-76
2021/11/25 06:09:48;;;;;;;9.05;5.72;;;14.50;91.80;;;;;;5094381;28;20016;-78
2021/11/25 06:12:13;;;;;;;9.52;6.00;;;14.60;91.90;;;;;;5094073;28;20028;-80
2021/11/25 06:14:39;;;;;;;9.35;6.05;;;14.60;91.90;;;;;;5094180;28;20065;-78
2021/11/25 06:17:05;;;;;;;9.23;6.68;;;14.70;92.00;;;;;;5094197;28;20056;-81
2021/11/25 06:19:31;;;;;;;9.50;5.93;;;14.60;92.00;;;;;;5093512;28;20098;-81
2021/11/25 06:21:58;;;;;;;8.23;5.78;;;14.60;92.20;;;;;;5075901;28;20024;-79
2021/11/25 06:24:23;;;;;;;8.60;5.00;;;14.60;92.50;;;;;;5093787;28;20203;-80
2021/11/25 06:26:50;;;;;;;14.50;8.20;;;14.50;92.30;;;;;;5093893;28;20385;-80
2021/11/25 06:29:18;;;;;;;10.05;4.47;;;14.60;92.50;;;;;;5094703;28;20019;-78
2021/11/25 06:31:44;;;;;;;9.82;4.18;;;14.60;92.50;;;;;;5094891;28;20212;-79
2021/11/25 06:34:11;;;;;;;8.68;4.20;;;14.70;92.50;;;;;;5094583;28;20020;-77
2021/11/25 06:36:38;;;;;;;7.95;3.50;;;14.70;92.50;;;;;;5093328;28;20024;-78
2021/11/25 06:39:04;;;;;;;6.78;3.67;;;14.80;92.60;;;;;;5070232;28;20024;-79
2021/11/25 06:41:30;;;;;;;9.95;4.88;;;14.80;92.80;;;;;;5073036;28;20028;-79
2021/11/25 06:43:56;;;;;;;8.27;4.10;;;14.70;93.00;;;;;;5073133;28;20017;-79
2021/11/25 06:46:22;;;;;;;9.55;3.10;;;14.70;93.20;;;;;;5093509;28;20076;-77
2021/11/25 06:48:47;;;;;;;9.48;3.63;;;14.70;93.30;;;;;;5093402;28;20032;-81
2021/11/25 06:51:13;;;;;;;8.15;4.28;;;14.70;93.70;;;;;;5093404;28;20040;-83
2021/11/25 06:53:39;;;;;;;7.78;3.95;;;14.60;94.10;;;;;;5094158;28;20020;-82
2021/11/25 06:56:05;;;;;;;7.95;2.65;;;14.60;94.10;;;;;;5090926;28;20028;-81
2021/11/25 06:58:31;;;;;;;9.98;2.67;;;14.60;94.20;;;;;;5093215;28;20027;-77
2021/11/25 07:00:57;;;;;;;7.30;3.20;;;14.50;94.20;;;;;;5092754;28;20028;-78
2021/11/25 07:03:22;;;;;;;9.90;3.20;;;14.50;94.40;;;;;;5087347;28;20099;-80
2021/11/25 07:05:48;;;;;;;5.25;2.55;;;14.50;94.40;;;;;;5089095;28;20166;-79
2021/11/25 07:08:14;;;;;;;7.60;3.35;;;14.50;94.50;;;;;;5092740;28;20020;-78
2021/11/25 07:10:41;;;;;;;9.30;3.00;;;14.40;94.70;;;;;;5093867;28;20461;-80
2021/11/25 07:13:07;;;;;;;5.47;2.70;;;14.40;94.80;;;;;;5075991;28;20028;-80
2021/11/25 07:15:33;;;;;;;5.22;2.22;;;14.40;94.90;;;;;;5093555;28;20029;-87
2021/11/25 07:18:01;;;;;;;7.20;2.67;;;14.40;94.90;;;;;;5081757;28;20055;-85
2021/11/25 07:20:27;;;;;;;5.97;2.47;;;14.30;95.10;;;;;;5075163;28;20103;-86
2021/11/25 07:22:53;;;;;;;6.43;2.50;;;14.30;95.10;;;;;;5073844;28;20047;-85
2021/11/25 07:25:19;;;;;;;8.25;3.25;;;14.30;95.20;;;;;;5073559;28;20458;-82
2021/11/25 07:27:46;;;;;;;6.55;3.13;;;14.20;95.30;;;;;;5074329;28;20056;-83
2021/11/25 07:30:13;;;;;;;21.25;12.00;;;14.20;95.60;;;;;;5075014;28;20454;-82
2021/11/25 07:32:39;;;;;;;10.82;5.38;;;14.20;95.80;;;;;;5078534;28;20051;-85
2021/11/25 07:35:06;;;;;;;9.57;4.60;;;14.20;96.30;;;;;;5078796;28;20032;-81
2021/11/25 07:37:32;;;;;;;6.43;3.15;;;14.20;96.30;;;;;;5079062;28;20017;-85
2021/11/25 07:39:58;;;;;;;6.00;2.55;;;14.20;96.30;;;;;;5077970;28;20024;-81
2021/11/25 07:42:25;;;;;;;7.93;2.80;;;14.00;96.70;;;;;;5077184;28;20055;-77
2021/11/25 07:44:52;;;;;;;12.68;2.70;;;14.00;96.80;;;;;;5076568;28;20035;-75
2021/11/25 07:47:22;;;;;;;8.95;2.72;;;14.00;96.90;;;;;;5079081;28;20020;-77
2021/11/25 07:49:48;;;;;;;6.85;2.42;;;14.00;96.90;;;;;;5094938;28;20448;-76
2021/11/25 07:52:14;;;;;;;9.48;2.72;;;14.00;96.90;;;;;;5099605;28;20101;-81
2021/11/25 07:54:40;;;;;;;7.65;2.42;;;14.00;97.00;;;;;;5097937;28;20469;-76
2021/11/25 07:57:07;;;;;;;8.38;3.28;;;14.00;97.20;;;;;;5097234;28;20043;-77
2021/11/25 07:59:33;;;;;;;7.93;2.75;;;14.00;97.20;;;;;;5083261;28;20048;-76
2021/11/25 08:01:59;;;;;;;7.50;3.53;;;14.00;97.20;;;;;;5076275;28;20052;-77
2021/11/25 08:04:25;;;;;;;9.25;3.85;;;13.90;97.50;;;;;;5078282;28;20067;-73
2021/11/25 08:06:52;;;;;;;8.18;3.15;;;13.90;97.70;;;;;;5076390;28;20028;-75
2021/11/25 08:09:18;;;;;;;9.30;3.65;;;13.90;98.00;;;;;;5076215;28;20066;-75
2021/11/25 08:11:43;;;;;;;6.90;3.63;;;13.90;98.00;;;;;;5076692;28;20230;-74
2021/11/25 08:14:10;;;;;;;5.97;3.60;;;13.90;97.90;;;;;;5076103;28;20523;-77
2021/11/25 08:16:36;;;;;;;8.10;4.28;;;13.90;97.90;;;;;;5076191;28;20024;-77
2021/11/25 08:19:02;;;;;;;10.68;4.75;;;14.00;98.00;;;;;;5076601;28;20096;-83
2021/11/25 08:21:27;;;;;;;9.50;4.20;;;13.90;98.20;;;;;;5077272;28;20121;-81
2021/11/25 08:23:53;;;;;;;6.90;3.92;;;13.90;98.40;;;;;;5078230;28;20063;-81
2021/11/25 08:26:19;;;;;;;7.35;3.95;;;13.90;98.20;;;;;;5077759;28;20101;-83
2021/11/25 08:28:44;;;;;;;7.38;3.92;;;13.90;98.30;;;;;;5077239;28;20142;-74
2021/11/25 08:31:10;;;;;;;8.07;4.55;;;13.90;98.00;;;;;;5075612;28;20478;-73
2021/11/25 08:33:36;;;;;;;9.68;4.60;;;14.00;98.20;;;;;;5075221;28;20043;-74
2021/11/25 08:36:02;;;;;;;10.18;5.30;;;14.00;98.30;;;;;;5076142;28;20083;-75
2021/11/25 08:38:32;;;;;;;8.85;4.10;;;14.00;98.20;;;;;;5057966;28;20052;-74
2021/11/25 08:40:59;;;;;;;6.45;3.30;;;14.00;98.20;;;;;;5076160;28;20024;-72
2021/11/25 08:43:25;;;;;;;7.85;3.55;;;14.10;98.20;;;;;;5075950;28;20024;-74
2021/11/25 08:45:51;;;;;;;7.13;2.95;;;14.10;98.00;;;;;;5077523;28;20082;-74
2021/11/25 08:48:17;;;;;;;7.20;3.30;;;14.10;98.10;;;;;;5076850;28;20457;-73
2021/11/25 08:50:44;;;;;;;6.90;3.33;;;14.10;98.00;;;;;;5058320;28;20028;-74
2021/11/25 08:53:14;;;;;;;7.60;3.70;;;14.10;98.00;;;;;;5076647;28;20037;-75
2021/11/25 08:55:40;;;;;;;7.40;4.30;;;14.20;98.00;;;;;;5075676;28;20025;-73
2021/11/25 08:58:06;;;;;;;6.78;3.60;;;14.20;98.00;;;;;;5075629;28;20040;-75
2021/11/25 09:00:33;;;;;;;13.48;4.53;;;14.20;97.90;;;;;;5076111;28;20421;-80
2021/11/25 09:03:03;;;;;;;8.35;3.90;;;14.30;97.90;;;;;;5076449;28;20020;-80
2021/11/25 09:05:30;;;;;;;7.55;3.72;;;14.40;97.70;;;;;;5075756;28;20116;-75
2021/11/25 09:07:56;;;;;;;6.88;3.90;;;14.60;97.50;;;;;;5042555;28;20025;-74
2021/11/25 09:10:22;;;;;;;9.43;3.78;;;14.60;97.20;;;;;;5075767;28;20082;-75
2021/11/25 09:12:48;;;;;;;7.47;4.32;;;14.70;97.10;;;;;;5075520;28;20032;-73
2021/11/25 09:15:15;;;;;;;7.50;4.15;;;14.70;96.90;;;;;;5075355;28;20040;-76
2021/11/25 09:17:40;;;;;;;10.20;4.70;;;14.80;96.90;;;;;;5074382;28;20020;-78
2021/11/25 09:20:09;;;;;;;7.20;3.95;;;14.80;96.90;;;;;;5074619;28;20036;-77
2021/11/25 09:22:36;;;;;;;7.95;3.25;;;14.80;96.90;;;;;;5058514;28;20039;-80
2021/11/25 09:25:03;;;;;;;6.50;3.65;;;14.80;96.90;;;;;;5075025;28;20052;-75
2021/11/25 09:27:29;;;;;;;8.32;4.05;;;14.90;96.90;;;;;;5075308;28;20418;-76
2021/11/25 09:29:55;;;;;;;10.95;4.20;;;14.90;96.70;;;;;;5074871;28;20139;-76
2021/11/25 09:32:20;;;;;;;9.35;4.32;;;15.00;96.70;;;;;;5056941;28;20029;-76
2021/11/25 09:34:46;;;;;;;8.68;4.13;;;15.00;96.60;;;;;;5074955;28;20020;-81
2021/11/25 09:37:12;;;;;;;12.25;3.72;;;15.10;96.60;;;;;;5075498;28;20021;-75
2021/11/25 09:39:38;;;;;;;9.75;3.50;;;15.20;96.40;;;;;;5057874;28;20504;-77
2021/11/25 09:42:04;;;;;;;6.97;3.50;;;15.30;96.30;;;;;;5075827;28;20040;-77
2021/11/25 09:44:31;;;;;;;7.55;3.70;;;15.50;96.20;;;;;;5075505;28;20362;-76
2021/11/25 09:46:58;;;;;;;6.65;3.40;;;15.50;95.90;;;;;;5075332;28;20064;-77
2021/11/25 09:49:28;;;;;;;5.65;3.60;;;15.60;95.80;;;;;;5075235;28;20166;-77
2021/11/25 09:51:55;;;;;;;7.20;3.42;;;15.60;95.60;;;;;;5074765;28;20459;-74
2021/11/25 09:54:21;;;;;;;6.05;3.90;;;15.60;95.70;;;;;;5074118;28;20032;-79
2021/11/25 09:56:49;;;;;;;7.45;4.20;;;15.50;95.60;;;;;;5056111;28;20029;-74
2021/11/25 09:59:15;;;;;;;8.80;5.18;;;15.50;95.60;;;;;;5074145;28;20032;-80
2021/11/25 10:01:41;;;;;;;8.57;5.53;;;15.40;95.60;;;;;;5074417;28;20017;-79
2021/11/25 10:04:07;;;;;;;9.60;4.85;;;15.40;95.60;;;;;;5074971;28;20028;-75
2021/11/25 10:06:59;;;;;;;6.80;4.30;;;15.40;95.50;;;;;;5074672;28;20039;-77
2021/11/25 10:09:39;;;;;;;8.30;4.18;;;15.50;95.40;;;;;;5075142;28;20020;-76
2021/11/25 10:12:36;;;;;;;8.50;4.32;;;15.50;95.20;;;;;;5074127;28;20064;-77
2021/11/25 10:15:30;;;;;;;6.13;3.75;;;15.50;95.30;;;;;;5074630;28;20024;-75
2021/11/25 10:18:00;;;;;;;5.78;3.38;;;15.50;94.90;;;;;;5074734;28;20477;-77
2021/11/25 10:20:37;;;;;;;7.63;4.20;;;15.50;94.70;;;;;;5074431;28;20422;-74
2021/11/25 10:23:03;;;;;;;5.55;3.40;;;15.40;94.70;;;;;;5074225;28;20105;-79
2021/11/25 10:25:55;;;;;;;6.65;3.50;;;15.50;94.70;;;;;;5073981;28;20056;-77
2021/11/25 10:28:21;;;;;;;5.97;3.42;;;15.50;94.60;;;;;;5056720;28;20453;-73
2021/11/25 10:30:52;;;;;;;5.90;3.42;;;15.50;94.30;;;;;;5074331;28;20044;-73
2021/11/25 10:33:44;;;;;;;5.25;2.85;;;15.60;94.20;;;;;;5073798;28;20063;-74
2021/11/25 10:38:57;;;;;;;5.82;3.03;;;15.50;93.80;;;;;;5073275;28;20500;-79
2021/11/25 10:41:24;;;;;;;5.47;2.78;;;15.50;94.10;;;;;;5072575;28;20555;-77
2021/11/25 10:44:07;;;;;;;5.72;3.13;;;15.50;93.80;;;;;;5072947;28;20100;-73
2021/11/25 10:47:07;;;;;;;5.88;3.22;;;15.50;93.90;;;;;;5072856;28;20032;-78
2021/11/25 10:49:53;;;;;;;7.22;3.22;;;15.50;93.80;;;;;;5072893;28;20063;-73
2021/11/25 10:52:29;;;;;;;5.40;3.10;;;15.60;93.80;;;;;;5072566;28;20496;-79
2021/11/25 10:55:29;;;;;;;9.23;3.05;;;15.70;93.90;;;;;;5072562;28;20496;-77
2021/11/25 10:57:57;;;;;;;6.57;3.42;;;15.70;93.90;;;;;;5072421;28;20040;-83
2021/11/25 11:00:44;;;;;;;7.13;3.80;;;15.70;93.90;;;;;;5054629;28;20048;-76
2021/11/25 11:03:14;;;;;;;11.80;3.60;;;15.70;93.90;;;;;;5054169;28;20052;-80
2021/11/25 11:06:01;;;;;;;6.03;3.60;;;15.70;93.80;;;;;;5072949;28;20081;-81
2021/11/25 11:08:29;;;;;;;6.30;4.15;;;15.70;93.80;;;;;;5072283;28;20017;-80
2021/11/25 11:11:01;;;;;;;9.52;3.80;;;15.60;93.80;;;;;;5054181;28;20024;-80
2021/11/25 11:18:53;;;;;;;8.43;4.15;;;15.60;93.90;;;;;;5072510;28;20029;-75
2021/11/25 11:21:44;;;;;;;7.13;4.00;;;15.60;93.80;;;;;;5072092;28;20051;-77
2021/11/25 11:24:20;;;;;;;8.50;4.45;;;15.60;93.90;;;;;;5072070;28;20048;-78
2021/11/25 11:26:48;;;;;;;6.57;3.90;;;15.60;93.90;;;;;;5053893;28;20040;-79
2021/11/25 11:29:17;;;;;;;7.07;4.07;;;15.60;93.70;;;;;;5072464;28;20024;-79
2021/11/25 11:31:45;;;;;;;9.45;4.63;;;15.70;93.70;;;;;;5053828;28;20037;-79
2021/11/25 11:34:11;;;;;;;10.88;4.18;;;15.70;93.60;;;;;;5054566;28;20445;-77
2021/11/25 11:36:43;;;;;;;8.70;4.28;;;15.80;93.30;;;;;;5053679;28;20393;-74
2021/11/25 11:39:11;;;;;;;7.57;4.60;;;16.00;93.30;;;;;;5071846;28;20033;-73
2021/11/25 11:41:38;;;;;;;9.80;4.70;;;16.00;92.90;;;;;;5071690;28;20017;-77
2021/11/25 11:44:04;;;;;;;12.13;5.15;;;16.10;92.70;;;;;;5071829;28;20398;-77
2021/11/25 11:46:33;;;;;;;9.85;4.95;;;16.20;92.50;;;;;;5071830;28;20420;-76
2021/11/25 11:49:00;;;;;;;7.88;5.00;;;16.20;92.40;;;;;;5071848;28;20020;-75
2021/11/25 11:51:27;;;;;;;7.68;4.50;;;16.30;92.30;;;;;;5071694;28;20071;-76
2021/11/25 11:53:57;;;;;;;7.22;5.25;;;16.30;91.90;;;;;;5071868;28;20482;-75
2021/11/25 11:56:49;;;;;;;8.77;5.00;;;16.30;92.00;;;;;;5071999;28;20107;-76
2021/11/25 11:59:15;;;;;;;9.50;4.85;;;16.40;91.90;;;;;;5067434;28;20089;-79
2021/11/25 12:01:42;;;;;;;8.75;5.03;;;16.50;91.70;;;;;;5072529;28;20025;-79
2021/11/25 12:04:16;;;;;;;9.38;5.20;;;16.50;91.60;;;;;;5071686;28;20125;-75
2021/11/25 12:06:50;;;;;;;7.47;4.88;;;16.60;91.70;;;;;;5071441;28;20029;-76
2021/11/25 12:09:31;;;;;;;6.95;4.50;;;16.60;91.50;;;;;;5053218;28;20358;-75
2021/11/25 12:12:10;;;;;;;7.80;5.10;;;16.70;91.40;;;;;;5071669;28;20031;-78
2021/11/25 12:14:37;;;;;;;17.98;6.20;;;16.60;91.50;;;;;;5054474;28;20373;-74
2021/11/25 12:17:11;;;;;;;9.15;5.20;;;16.70;91.40;;;;;;5057747;28;20016;-76
2021/11/25 12:19:39;;;;;;;9.48;5.60;;;16.80;91.30;;;;;;5076667;28;20035;-76
2021/11/25 12:22:19;;;;;;;8.55;5.82;;;16.90;91.10;;;;;;5057715;28;20107;-78
2021/11/25 12:24:57;;;;;;;9.10;5.60;;;16.90;90.80;;;;;;5075008;28;20060;-75
2021/11/25 12:27:31;;;;;;;9.10;4.50;;;17.00;90.90;;;;;;5057198;28;20044;-75
2021/11/25 12:30:02;;;;;;;;;;;17.10;90.40;;;;;;5075445;28;20029;-74
2021/11/25 12:32:41;;;;;;;11.40;4.82;;;17.20;90.00;;;;;;5075017;28;19927;-72
2021/11/25 12:35:14;;;;;;;8.88;5.10;;;17.20;90.20;;;;;;5074767;28;20063;-75
2021/11/25 12:37:49;;;;;;;6.70;4.68;;;17.20;90.20;;;;;;5074707;28;20021;-74
2021/11/25 12:40:17;;;;;;;10.27;4.95;;;17.20;90.20;;;;;;5074838;28;20036;-76
2021/11/25 12:43:03;;;;;;;7.53;4.45;;;17.10;90.00;;;;;;5074807;28;20101;-73
2021/11/25 12:45:43;;;;;;;6.80;4.38;;;16.90;90.00;;;;;;5074449;28;20051;-73
2021/11/25 12:48:19;;;;;;;6.80;4.57;;;16.90;90.30;;;;;;5075057;28;20058;-75
2021/11/25 12:50:54;;;;;;;9.75;4.65;;;16.90;90.30;;;;;;5074837;28;20035;-79
2021/11/25 12:53:54;;;;;;;8.43;5.00;;;16.80;90.40;;;;;;5056634;28;20036;-77
2021/11/25 12:56:19;;;;;;;12.57;5.07;;;16.70;90.40;;;;;;5020878;28;20089;-76
2021/11/25 12:59:13;;;;;;;11.55;6.80;;;16.60;90.50;;;;;;5076605;28;20051;-78
2021/11/25 13:01:45;;;;;;;12.73;6.55;;;16.50;90.70;;;;;;5075898;28;20065;-76
2021/11/25 13:04:21;;;;;;;12.60;6.88;;;16.50;90.90;;;;;;5074629;28;20024;-76
2021/11/25 13:07:09;;;;;;;10.95;5.43;;;16.40;91.10;;;;;;5056452;28;20040;-76